MMTC/TRC METAR and TAF weather

Enter ICAO airport designator
Station Type Date Time Source
MMTC METAR 2020/01/18 12:40 UTC NOAA

MMTC 181240Z 00000KT 8SM SCT100 SCT200 14/11 A3019 RMK 8/072 HZY ISOL SC


Station Type Date Time Source
MMTC Decoded METAR 2020/01/18 12:40 UTC NOAA

Torreon, Coah., Mexico (MMTC) 25-32N 103-27W 1150M
Jan 18, 2020 - 07:40 AM EST / 2020.01.18 1240 UTC
Wind: Calm:0
Visibility: 8 mile(s):0
Sky conditions: partly cloudy
Temperature: 57 F (14 C)
Dew Point: 51 F (11 C)
Relative Humidity: 82%
Pressure (altimeter): 30.19 in. Hg (1022 hPa)
ob: MMTC 181240Z 00000KT 8SM SCT100 SCT200 14/11 A3019 RMK 8/072 HZY ISOL SC
cycle: 12

Station Type Date Time Source
MMTC TAF 2020/01/18 06:12 UTC NOAA

TAF TAF MMTC 180510Z 1806/1906 00000KT P6SM SCT030 BKN100 BKN200
TEMPO 1806/1810 5SM -RA BKN030
FM181800 08010KT P6SM SCT030 BKN100 BKN200
FM190300 08005KT 6SM HZ SCT100 BKN200

Example: see airport list